Time;durP1;ratioP1;P1;durP2;ratioP2;P2;SDS_P1;SDS_P2;PMS_P1;PMS_P2;Temp;Humidity;BMP_temperature;BMP_pressure;BME280_temperature;BME280_humidity;BME280_pressure;Samples;Min_cycle;Max_cycle;Signal;HPM_P1;HPM_P2
2023/11/08 00:01:50;;;;;;;0.00;0.00;;;;;;;5.64;100.00;99847.25;4964643;28;20141;-78
2023/11/08 00:04:15;;;;;;;0.00;0.00;;;;;;;5.69;100.00;99842.69;4965985;28;20113;-78
2023/11/08 00:06:42;;;;;;;0.00;0.00;;;;;;;5.74;100.00;99839.25;4963343;28;20070;-78
2023/11/08 00:09:10;;;;;;;0.00;0.00;;;;;;;5.81;100.00;99834.50;4984270;28;20054;-78
2023/11/08 00:11:38;;;;;;;0.00;0.00;;;;;;;5.79;100.00;99835.81;4993994;28;20104;-79
2023/11/08 00:14:05;;;;;;;0.05;0.05;;;;;;;5.87;100.00;99844.34;4958812;28;20034;-77
2023/11/08 00:16:31;;;;;;;0.00;0.00;;;;;;;5.86;100.00;99836.44;4957301;28;20052;-77
2023/11/08 00:18:56;;;;;;;0.00;0.00;;;;;;;5.90;100.00;99832.19;4956637;28;20096;-77
2023/11/08 00:21:24;;;;;;;0.00;0.00;;;;;;;5.92;100.00;99825.41;4968715;28;20034;-78
2023/11/08 00:23:49;;;;;;;0.00;0.00;;;;;;;5.95;100.00;99824.09;4965367;28;20126;-78
2023/11/08 00:26:15;;;;;;;0.00;0.00;;;;;;;5.98;100.00;99820.09;4950021;28;20405;-78
2023/11/08 00:28:40;;;;;;;0.00;0.00;;;;;;;5.94;100.00;99822.44;4973200;28;20392;-78
2023/11/08 00:31:07;;;;;;;0.00;0.00;;;;;;;5.93;100.00;99820.81;4962120;28;20030;-78
2023/11/08 00:33:32;;;;;;;0.00;0.00;;;;;;;6.00;100.00;99816.06;4973798;28;20117;-77
2023/11/08 00:35:58;;;;;;;0.00;0.00;;;;;;;5.94;100.00;99812.41;4981804;28;20050;-78
2023/11/08 00:38:23;;;;;;;0.00;0.00;;;;;;;5.97;100.00;99800.25;4993983;28;20098;-77
2023/11/08 00:40:48;;;;;;;0.00;0.00;;;;;;;5.98;100.00;99801.09;4976667;28;20037;-76
2023/11/08 00:43:14;;;;;;;0.00;0.00;;;;;;;5.93;100.00;99793.69;4969753;28;20037;-77
2023/11/08 00:45:39;;;;;;;0.00;0.00;;;;;;;5.92;100.00;99800.16;4999704;28;20030;-78
2023/11/08 00:48:05;;;;;;;0.00;0.00;;;;;;;5.92;100.00;99792.03;4996534;28;20026;-77
2023/11/08 00:50:31;;;;;;;0.00;0.00;;;;;;;5.89;100.00;99787.09;4972624;28;20030;-76
2023/11/08 00:52:58;;;;;;;0.00;0.00;;;;;;;5.74;100.00;99764.09;4974693;28;20044;-76
2023/11/08 00:55:26;;;;;;;0.00;0.00;;;;;;;5.95;100.00;99780.66;4970051;28;20037;-77
2023/11/08 00:57:52;;;;;;;0.00;0.00;;;;;;;6.04;100.00;99773.75;4995388;28;20034;-77
2023/11/08 01:00:18;;;;;;;0.00;0.00;;;;;;;6.16;100.00;99770.09;4988023;28;20044;-77
2023/11/08 01:02:44;;;;;;;0.00;0.00;;;;;;;6.22;100.00;99763.66;4965696;28;20509;-76
2023/11/08 01:05:12;;;;;;;0.00;0.00;;;;;;;6.29;100.00;99759.69;4966959;28;20428;-75
2023/11/08 01:07:38;;;;;;;0.00;0.00;;;;;;;6.46;100.00;99762.31;4965920;28;20036;-76
2023/11/08 01:10:07;;;;;;;0.00;0.00;;;;;;;6.61;100.00;99758.09;4971844;28;20034;-75
2023/11/08 01:12:33;;;;;;;0.00;0.00;;;;;;;6.75;100.00;99758.53;4966500;28;20113;-76
2023/11/08 01:15:00;;;;;;;0.10;0.10;;;;;;;6.92;100.00;99766.56;4972746;28;20477;-75
2023/11/08 01:17:25;;;;;;;0.00;0.00;;;;;;;6.97;100.00;99766.63;4984397;28;20038;-76
2023/11/08 01:19:50;;;;;;;0.00;0.00;;;;;;;7.09;100.00;99772.69;4943763;28;20042;-77
2023/11/08 01:22:16;;;;;;;0.00;0.00;;;;;;;7.15;100.00;99784.44;4951065;28;21566;-76
2023/11/08 01:24:42;;;;;;;0.00;0.00;;;;;;;7.20;100.00;99772.78;4954487;28;20034;-77
2023/11/08 01:27:08;;;;;;;0.00;0.00;;;;;;;7.14;99.68;99767.31;4976173;28;20362;-76
2023/11/08 01:29:34;;;;;;;0.00;0.00;;;;;;;7.09;99.98;99745.50;4949727;28;20691;-78
2023/11/08 01:32:00;;;;;;;0.00;0.00;;;;;;;7.10;100.00;99741.72;4974616;28;20026;-76
2023/11/08 01:34:25;;;;;;;0.00;0.00;;;;;;;7.14;100.00;99753.72;4968446;28;20026;-77
2023/11/08 01:36:51;;;;;;;0.00;0.00;;;;;;;7.14;100.00;99740.13;4958367;28;20061;-75
2023/11/08 01:39:17;;;;;;;0.00;0.00;;;;;;;7.16;100.00;99737.94;4946568;28;20037;-77
2023/11/08 01:41:48;;;;;;;0.00;0.00;;;;;;;7.14;99.70;99737.41;4964832;28;20137;-78
2023/11/08 01:44:18;;;;;;;0.00;0.00;;;;;;;7.09;99.76;99723.75;4952588;28;20037;-76
2023/11/08 01:46:43;;;;;;;0.00;0.00;;;;;;;7.07;99.97;99725.13;4946621;28;20030;-76
2023/11/08 01:49:08;;;;;;;0.00;0.00;;;;;;;7.05;100.00;99733.50;4954084;28;20073;-78
2023/11/08 01:51:35;;;;;;;0.00;0.00;;;;;;;7.06;100.00;99735.16;4948659;28;20037;-78
2023/11/08 01:54:00;;;;;;;0.00;0.00;;;;;;;7.05;100.00;99732.69;4970235;28;20030;-79
2023/11/08 01:56:27;;;;;;;0.00;0.00;;;;;;;7.06;100.00;99726.19;4969947;28;20026;-78
2023/11/08 01:58:54;;;;;;;0.00;0.00;;;;;;;7.10;100.00;99724.59;4946652;28;20023;-78
2023/11/08 02:01:20;;;;;;;0.00;0.00;;;;;;;7.08;99.75;99708.53;4951958;28;20037;-77
2023/11/08 02:03:46;;;;;;;0.00;0.00;;;;;;;7.07;100.00;99704.16;4947978;28;20133;-78
2023/11/08 02:06:17;;;;;;;0.00;0.00;;;;;;;7.04;99.70;99682.94;4954264;28;20130;-79
2023/11/08 02:08:42;;;;;;;0.00;0.00;;;;;;;7.12;99.78;99679.72;4933128;28;21403;-78
2023/11/08 02:11:09;;;;;;;0.00;0.00;;;;;;;7.10;99.40;99675.66;4969946;28;20034;-78
2023/11/08 02:13:34;;;;;;;0.00;0.00;;;;;;;7.10;100.00;99662.88;4971536;28;20034;-78
2023/11/08 02:16:01;;;;;;;0.00;0.00;;;;;;;7.08;100.00;99646.00;4984166;28;20085;-78
2023/11/08 02:18:26;;;;;;;0.00;0.00;;;;;;;7.12;100.00;99651.72;4970712;28;20054;-78
2023/11/08 02:20:53;;;;;;;0.00;0.00;;;;;;;7.09;100.00;99644.91;4955019;28;20053;-79
2023/11/08 02:23:18;;;;;;;0.00;0.00;;;;;;;7.15;100.00;99646.59;4948294;28;20112;-79
2023/11/08 02:25:45;;;;;;;0.00;0.00;;;;;;;7.18;100.00;99655.31;4968589;28;20369;-78
2023/11/08 02:28:11;;;;;;;0.00;0.00;;;;;;;7.25;100.00;99661.34;4957625;28;21054;-77
2023/11/08 02:30:36;;;;;;;0.00;0.00;;;;;;;7.23;100.00;99652.59;4985194;28;20065;-76
2023/11/08 02:33:02;;;;;;;0.00;0.00;;;;;;;7.31;100.00;99649.41;4961891;28;20104;-77
2023/11/08 02:35:27;;;;;;;0.00;0.00;;;;;;;7.36;99.95;99646.72;4953581;28;20026;-77
2023/11/08 02:37:53;;;;;;;0.00;0.00;;;;;;;7.34;100.00;99637.97;4950015;28;20112;-77
2023/11/08 02:40:18;;;;;;;0.00;0.00;;;;;;;7.36;100.00;99624.97;4939047;28;20026;-77
2023/11/08 02:42:45;;;;;;;0.00;0.00;;;;;;;7.30;100.00;99598.78;4988117;28;20037;-77
2023/11/08 02:45:12;;;;;;;0.00;0.00;;;;;;;7.34;100.00;99589.03;4985436;28;20626;-77
2023/11/08 02:47:37;;;;;;;0.00;0.00;;;;;;;7.28;100.00;99595.53;4986291;28;20022;-77
2023/11/08 02:50:05;;;;;;;0.00;0.00;;;;;;;7.32;100.00;99589.28;4970904;28;20112;-77
2023/11/08 02:52:30;;;;;;;0.00;0.00;;;;;;;7.30;100.00;99599.63;4961576;28;20054;-78
2023/11/08 02:54:56;;;;;;;0.00;0.00;;;;;;;7.26;100.00;99595.81;4947257;28;20177;-77
2023/11/08 02:57:24;;;;;;;0.00;0.00;;;;;;;7.24;100.00;99594.41;4937324;28;20314;-76
2023/11/08 02:59:51;;;;;;;0.00;0.00;;;;;;;7.30;100.00;99593.34;4973579;28;20536;-77
2023/11/08 03:02:17;;;;;;;0.00;0.00;;;;;;;7.31;100.00;99584.94;4971152;28;20097;-78
2023/11/08 03:04:43;;;;;;;0.00;0.00;;;;;;;7.34;100.00;99580.88;4976111;28;20030;-76
2023/11/08 03:07:10;;;;;;;0.00;0.00;;;;;;;7.38;100.00;99584.69;4957912;28;20031;-79
2023/11/08 03:09:35;;;;;;;0.00;0.00;;;;;;;7.48;100.00;99573.84;4968271;28;20036;-78
2023/11/08 03:12:01;;;;;;;0.00;0.00;;;;;;;7.53;100.00;99553.19;4947169;28;20030;-79
2023/11/08 03:14:27;;;;;;;0.03;0.03;;;;;;;7.61;100.00;99544.53;4969380;28;20033;-78
2023/11/08 03:16:56;;;;;;;0.00;0.00;;;;;;;7.61;100.00;99530.94;4985579;28;20030;-77
2023/11/08 03:19:22;;;;;;;0.00;0.00;;;;;;;7.66;100.00;99536.38;4965314;28;20031;-78
2023/11/08 03:21:48;;;;;;;0.00;0.00;;;;;;;7.73;100.00;99536.13;4953381;28;20087;-79
2023/11/08 03:24:18;;;;;;;0.00;0.00;;;;;;;7.71;100.00;99524.66;4978555;28;20392;-76
2023/11/08 03:26:44;;;;;;;0.00;0.00;;;;;;;7.82;100.00;99534.50;4952901;28;20034;-78
2023/11/08 03:29:10;;;;;;;0.00;0.00;;;;;;;7.85;100.00;99518.44;4965087;28;20137;-78
2023/11/08 03:31:36;;;;;;;0.00;0.00;;;;;;;7.91;100.00;99521.19;4947747;28;20025;-77
2023/11/08 03:34:04;;;;;;;0.00;0.00;;;;;;;7.98;100.00;99524.44;4941012;28;20050;-79
2023/11/08 03:36:30;;;;;;;0.00;0.00;;;;;;;8.00;100.00;99514.09;4962944;28;20583;-79
2023/11/08 03:38:57;;;;;;;0.00;0.00;;;;;;;8.08;100.00;99516.28;4958390;28;20113;-81
2023/11/08 03:41:25;;;;;;;0.00;0.00;;;;;;;8.08;100.00;99499.94;4962560;28;20035;-78
2023/11/08 03:43:54;;;;;;;0.00;0.00;;;;;;;8.13;100.00;99497.25;4972981;28;20034;-77
2023/11/08 03:46:20;;;;;;;0.00;0.00;;;;;;;8.15;100.00;99483.34;4951779;28;20030;-78
2023/11/08 03:48:49;;;;;;;0.00;0.00;;;;;;;8.26;100.00;99486.88;4938452;28;20037;-78
2023/11/08 03:51:15;;;;;;;0.00;0.00;;;;;;;8.29;100.00;99483.59;4953929;28;20117;-78
2023/11/08 03:53:40;;;;;;;0.00;0.00;;;;;;;8.33;100.00;99469.16;4955140;28;20153;-78
2023/11/08 03:56:06;;;;;;;0.00;0.00;;;;;;;8.38;100.00;99471.03;4959321;28;20412;-77
2023/11/08 03:58:31;;;;;;;0.00;0.00;;;;;;;8.40;100.00;99463.44;4934341;28;20088;-76
2023/11/08 04:00:57;;;;;;;0.00;0.00;;;;;;;8.50;100.00;99474.34;4954709;28;20026;-77
2023/11/08 04:03:22;;;;;;;0.00;0.00;;;;;;;8.55;100.00;99465.34;4972073;28;20073;-77
2023/11/08 04:05:48;;;;;;;0.10;0.10;;;;;;;8.58;100.00;99464.78;4982756;28;20021;-77
2023/11/08 04:08:13;;;;;;;0.00;0.00;;;;;;;8.60;100.00;99461.78;4966822;28;20465;-77
2023/11/08 04:10:39;;;;;;;0.00;0.00;;;;;;;8.54;100.00;99448.19;4990068;28;20034;-77
2023/11/08 04:13:04;;;;;;;0.00;0.00;;;;;;;8.65;100.00;99456.34;4985391;28;20033;-78
2023/11/08 04:15:29;;;;;;;0.00;0.00;;;;;;;8.62;100.00;99454.16;4958520;28;20555;-79
2023/11/08 04:17:55;;;;;;;0.00;0.00;;;;;;;8.64;100.00;99452.75;4951463;28;20403;-78
2023/11/08 04:20:21;;;;;;;0.00;0.00;;;;;;;8.67;100.00;99441.34;4977347;28;20136;-78
2023/11/08 04:22:47;;;;;;;0.00;0.00;;;;;;;8.64;100.00;99435.63;4964827;28;20065;-77
2023/11/08 04:25:12;;;;;;;0.00;0.00;;;;;;;8.58;100.00;99420.38;4963305;28;20033;-78
2023/11/08 04:27:38;;;;;;;0.00;0.00;;;;;;;8.55;100.00;99422.53;4947759;28;20508;-76
2023/11/08 04:30:04;;;;;;;0.00;0.00;;;;;;;8.58;100.00;99415.72;4994951;28;20023;-78
2023/11/08 04:32:29;;;;;;;0.10;0.10;;;;;;;8.55;100.00;99406.19;4975960;28;20097;-77
2023/11/08 04:34:55;;;;;;;0.00;0.00;;;;;;;8.49;100.00;99395.59;4940991;28;20383;-76
2023/11/08 04:37:21;;;;;;;0.00;0.00;;;;;;;8.53;100.00;99405.66;4941467;28;20390;-77
2023/11/08 04:39:48;;;;;;;0.00;0.00;;;;;;;8.55;100.00;99406.19;4980409;28;20041;-78
2023/11/08 04:42:14;;;;;;;0.00;0.00;;;;;;;8.56;100.00;99393.41;4943146;28;20048;-76
2023/11/08 04:44:44;;;;;;;0.00;0.00;;;;;;;8.63;100.00;99396.66;4964330;28;20520;-77
2023/11/08 04:47:14;;;;;;;0.00;0.00;;;;;;;8.65;100.00;99394.44;4987372;28;20433;-77
2023/11/08 04:49:40;;;;;;;0.00;0.00;;;;;;;8.70;100.00;99396.34;4967375;28;20392;-77
2023/11/08 04:52:05;;;;;;;0.00;0.00;;;;;;;8.75;100.00;99393.59;4938411;28;20062;-77
2023/11/08 04:54:31;;;;;;;0.00;0.00;;;;;;;8.77;100.00;99394.13;4954198;28;20370;-76
2023/11/08 04:56:56;;;;;;;0.00;0.00;;;;;;;8.82;100.00;99383.22;4977705;28;20045;-75
2023/11/08 04:59:21;;;;;;;0.05;0.05;;;;;;;8.84;100.00;99375.56;4954652;28;20556;-77
2023/11/08 05:01:47;;;;;;;0.00;0.00;;;;;;;8.87;100.00;99385.91;4934932;28;21007;-73
2023/11/08 05:04:13;;;;;;;0.00;0.00;;;;;;;8.86;100.00;99373.38;4956977;28;20058;-76
2023/11/08 05:06:38;;;;;;;0.00;0.00;;;;;;;8.88;100.00;99359.47;4933416;28;20014;-76
2023/11/08 05:09:04;;;;;;;0.00;0.00;;;;;;;8.91;100.00;99362.44;4969842;28;20071;-77
2023/11/08 05:11:29;;;;;;;0.00;0.00;;;;;;;8.93;100.00;99356.69;4944308;28;20023;-77
2023/11/08 05:13:55;;;;;;;0.00;0.00;;;;;;;8.94;100.00;99352.09;4932927;28;20642;-77
2023/11/08 05:16:21;;;;;;;0.00;0.00;;;;;;;9.04;100.00;99362.94;4966988;28;20037;-77
2023/11/08 05:18:47;;;;;;;0.00;0.00;;;;;;;9.00;100.00;99342.78;4984635;28;20129;-79
2023/11/08 05:21:13;;;;;;;0.00;0.00;;;;;;;9.08;100.00;99339.44;4941007;28;20114;-79
2023/11/08 05:23:38;;;;;;;0.00;0.00;;;;;;;9.06;100.00;99344.38;4951579;28;20039;-77
2023/11/08 05:26:04;;;;;;;0.00;0.00;;;;;;;9.07;100.00;99326.91;4960040;28;20026;-79
2023/11/08 05:28:32;;;;;;;0.00;0.00;;;;;;;9.08;100.00;99315.72;4987974;28;20014;-77
2023/11/08 05:30:57;;;;;;;0.00;0.00;;;;;;;9.13;100.00;99333.97;4959384;28;20019;-77
2023/11/08 05:33:23;;;;;;;0.00;0.00;;;;;;;9.09;100.00;99320.06;4954219;28;20026;-77
2023/11/08 05:35:59;;;;;;;0.00;0.00;;;;;;;8.96;100.00;99285.25;4943960;28;20042;-78
2023/11/08 05:38:26;;;;;;;0.00;0.00;;;;;;;9.08;100.00;99303.97;4953436;28;20035;-80
2023/11/08 05:40:53;;;;;;;0.00;0.00;;;;;;;9.05;100.00;99288.19;4951750;28;20027;-79
2023/11/08 05:43:18;;;;;;;0.00;0.00;;;;;;;8.94;100.00;99264.84;4985644;28;20080;-78
2023/11/08 05:45:44;;;;;;;0.00;0.00;;;;;;;9.06;100.00;99268.00;4953338;28;20380;-78
2023/11/08 05:48:09;;;;;;;0.00;0.00;;;;;;;9.19;100.00;99289.19;4946248;28;20022;-81
2023/11/08 05:50:35;;;;;;;0.00;0.00;;;;;;;9.26;100.00;99294.31;4970168;28;20080;-79
2023/11/08 05:53:03;;;;;;;0.00;0.00;;;;;;;9.19;100.00;99281.00;4963138;28;20026;-79
2023/11/08 05:55:28;;;;;;;0.00;0.00;;;;;;;9.21;100.00;99264.34;4950365;28;20038;-80
2023/11/08 05:57:55;;;;;;;0.00;0.00;;;;;;;9.16;100.00;99243.38;4971547;28;20444;-77
2023/11/08 06:00:36;;;;;;;0.00;0.00;;;;;;;9.44;100.00;99290.88;4962070;28;20571;-76
2023/11/08 06:03:01;;;;;;;0.00;0.00;;;;;;;9.29;100.00;99243.81;4964441;28;20084;-76
2023/11/08 06:05:29;;;;;;;0.00;0.00;;;;;;;9.36;100.00;99252.47;4966084;28;20034;-76
2023/11/08 06:07:56;;;;;;;0.00;0.00;;;;;;;9.32;100.00;99243.25;4968963;28;20526;-76
2023/11/08 06:10:22;;;;;;;0.00;0.00;;;;;;;9.48;100.00;99244.75;4948065;28;20461;-75
2023/11/08 06:12:47;;;;;;;0.00;0.00;;;;;;;9.55;100.00;99247.94;4951857;28;20041;-74
2023/11/08 06:15:14;;;;;;;0.00;0.00;;;;;;;9.53;100.00;99231.03;4965038;28;20045;-75
2023/11/08 06:17:39;;;;;;;0.00;0.00;;;;;;;9.57;100.00;99212.19;4983700;28;20034;-75
2023/11/08 06:20:08;;;;;;;0.00;0.00;;;;;;;9.58;100.00;99224.72;4966888;28;20034;-75
2023/11/08 06:22:34;;;;;;;0.00;0.00;;;;;;;9.56;100.00;99226.91;4963939;28;20042;-76
2023/11/08 06:24:59;;;;;;;0.00;0.00;;;;;;;9.55;100.00;99219.81;4970332;28;20079;-75
2023/11/08 06:27:25;;;;;;;0.00;0.00;;;;;;;9.44;100.00;99180.91;4984625;28;20554;-76
2023/11/08 06:29:55;;;;;;;0.00;0.00;;;;;;;9.44;100.00;99178.19;4961788;28;20030;-76
2023/11/08 06:32:21;;;;;;;0.00;0.00;;;;;;;9.58;100.00;99187.31;4949473;28;22391;-76
2023/11/08 06:34:47;;;;;;;0.00;0.00;;;;;;;9.68;100.00;99191.03;4954194;28;20031;-76
2023/11/08 06:37:16;;;;;;;0.00;0.00;;;;;;;9.62;100.00;99171.16;4984284;28;20030;-76
2023/11/08 06:39:44;;;;;;;0.00;0.00;;;;;;;9.71;100.00;99185.00;4966026;28;20022;-76
2023/11/08 06:42:09;;;;;;;0.00;0.00;;;;;;;9.72;100.00;99170.25;4946745;28;20421;-75
2023/11/08 06:44:35;;;;;;;0.00;0.00;;;;;;;9.82;100.00;99178.31;4970328;28;20056;-77
2023/11/08 06:47:00;;;;;;;0.00;0.00;;;;;;;9.70;100.00;99161.53;4952203;28;20113;-76
2023/11/08 06:49:28;;;;;;;0.00;0.00;;;;;;;9.77;100.00;99157.34;4983175;28;20018;-74
2023/11/08 06:51:54;;;;;;;0.00;0.00;;;;;;;9.65;100.00;99172.50;4981857;28;20121;-76
2023/11/08 06:54:19;;;;;;;0.00;0.00;;;;;;;9.82;100.00;99164.66;4988015;28;20117;-76
2023/11/08 06:56:45;;;;;;;0.00;0.00;;;;;;;9.86;100.00;99160.25;4962238;28;20436;-76
2023/11/08 06:59:10;;;;;;;0.00;0.00;;;;;;;9.84;100.00;99162.47;4954799;28;20122;-76
2023/11/08 07:01:37;;;;;;;0.00;0.00;;;;;;;9.60;100.00;99119.59;4969801;28;20410;-76
2023/11/08 07:04:03;;;;;;;0.00;0.00;;;;;;;9.64;100.00;99116.28;4966693;28;20053;-77
2023/11/08 07:06:39;;;;;;;;;;;;;;;;;;;;;
2023/11/08 07:09:09;;;;;;;0.00;0.00;;;;;;;9.73;100.00;99136.41;4968200;28;20027;-78
2023/11/08 07:11:35;;;;;;;0.00;0.00;;;;;;;9.75;100.00;99123.25;4954217;28;20034;-78
2023/11/08 07:14:00;;;;;;;0.00;0.00;;;;;;;9.84;100.00;99135.16;4963859;28;20029;-78
2023/11/08 07:16:26;;;;;;;0.00;0.00;;;;;;;9.88;100.00;99136.19;4970841;28;20030;-78
2023/11/08 07:18:57;;;;;;;0.00;0.00;;;;;;;9.84;100.00;99124.25;4974052;28;20732;-77
2023/11/08 07:21:25;;;;;;;0.00;0.00;;;;;;;9.52;100.00;99067.59;4972371;28;20595;-77
2023/11/08 07:23:53;;;;;;;0.00;0.00;;;;;;;9.61;100.00;99074.84;4954455;28;22123;-81
2023/11/08 07:26:21;;;;;;;0.00;0.00;;;;;;;9.74;100.00;99086.16;4967576;28;20030;-78
2023/11/08 07:28:47;;;;;;;0.00;0.00;;;;;;;9.89;100.00;99109.72;4964405;28;20023;-77
2023/11/08 07:31:21;;;;;;;0.00;0.00;;;;;;;10.01;100.00;99121.00;4967936;28;20089;-82
2023/11/08 07:35:08;;;;;;;0.00;0.00;;;;;;;9.98;100.00;99102.47;4950763;28;20034;-83
2023/11/08 07:37:26;;;;;;;0.00;0.00;;;;;;;9.90;100.00;99084.84;4991912;28;20030;-80
2023/11/08 07:39:51;;;;;;;0.00;0.00;;;;;;;10.11;100.00;99117.31;4953725;28;20038;-79
2023/11/08 07:42:24;;;;;;;0.00;0.00;;;;;;;9.95;100.00;99087.47;4952453;28;20054;-79
2023/11/08 07:44:50;;;;;;;0.00;0.00;;;;;;;10.06;100.00;99099.09;4949314;28;20380;-81
2023/11/08 07:47:18;;;;;;;0.00;0.00;;;;;;;10.06;100.00;99087.34;4951552;28;20019;-83
2023/11/08 07:49:43;;;;;;;0.00;0.00;;;;;;;10.07;100.00;99094.44;4971189;28;20030;-80
2023/11/08 07:52:12;;;;;;;0.00;0.00;;;;;;;10.05;100.00;99085.72;4968796;28;20056;-80
2023/11/08 07:54:39;;;;;;;0.00;0.00;;;;;;;10.09;100.00;99086.75;4971731;28;20026;-78
2023/11/08 07:57:05;;;;;;;0.00;0.00;;;;;;;10.08;100.00;99085.13;4941117;28;20046;-80
2023/11/08 07:59:30;;;;;;;0.00;0.00;;;;;;;10.10;100.00;99074.72;4953864;28;20037;-78
2023/11/08 08:01:56;;;;;;;0.00;0.00;;;;;;;10.03;100.00;99071.53;4947102;28;20047;-78
2023/11/08 08:04:22;;;;;;;0.00;0.00;;;;;;;10.08;100.00;99061.34;4949393;28;20087;-78
2023/11/08 08:06:50;;;;;;;0.00;0.00;;;;;;;10.10;100.00;99066.53;4957872;28;20029;-77
2023/11/08 08:09:17;;;;;;;0.00;0.00;;;;;;;10.13;100.00;99066.75;4949521;28;20026;-78
2023/11/08 08:11:46;;;;;;;0.00;0.00;;;;;;;10.19;100.00;99072.97;4968726;28;20124;-79
2023/11/08 08:14:12;;;;;;;0.00;0.00;;;;;;;10.27;100.00;99072.28;4935556;28;20034;-78
2023/11/08 08:16:39;;;;;;;0.00;0.00;;;;;;;10.27;100.00;99077.72;4949933;28;20065;-78
2023/11/08 08:19:05;;;;;;;0.00;0.00;;;;;;;10.33;100.00;99069.47;4961957;28;20372;-79
2023/11/08 08:21:31;;;;;;;0.00;0.00;;;;;;;10.29;100.00;99075.53;4985659;28;20026;-78
2023/11/08 08:23:57;;;;;;;0.00;0.00;;;;;;;10.28;100.00;99052.03;4972058;28;20113;-79
2023/11/08 08:26:22;;;;;;;0.00;0.00;;;;;;;10.33;100.00;99062.06;4969315;28;20099;-78
2023/11/08 08:28:52;;;;;;;0.00;0.00;;;;;;;10.45;100.00;99083.50;4953534;28;20131;-78
2023/11/08 08:31:30;;;;;;;0.00;0.00;;;;;;;10.36;100.00;99036.13;4981396;28;20030;-79
2023/11/08 08:34:01;;;;;;;0.00;0.00;;;;;;;10.41;100.00;99046.94;4979141;28;20205;-78
2023/11/08 08:36:30;;;;;;;0.00;0.00;;;;;;;10.41;100.00;99049.69;4962236;28;20032;-78
2023/11/08 08:39:04;;;;;;;0.00;0.00;;;;;;;10.40;100.00;99009.81;4988810;28;20026;-78
2023/11/08 08:41:32;;;;;;;0.00;0.00;;;;;;;10.38;100.00;99028.41;4956222;28;20381;-79
2023/11/08 08:43:58;;;;;;;0.00;0.00;;;;;;;10.50;100.00;99036.97;4955112;28;20026;-79
2023/11/08 08:46:23;;;;;;;0.00;0.00;;;;;;;10.51;100.00;99022.19;4974311;28;20022;-79
2023/11/08 08:48:51;;;;;;;0.00;0.00;;;;;;;10.56;100.00;99034.97;4972217;28;20121;-79
2023/11/08 08:51:20;;;;;;;0.00;0.00;;;;;;;10.69;100.00;99042.38;4993458;28;20029;-79
2023/11/08 08:53:45;;;;;;;0.00;0.00;;;;;;;10.70;100.00;99048.66;4971370;28;20018;-77
2023/11/08 08:56:12;;;;;;;0.00;0.00;;;;;;;10.81;100.00;99042.69;4957299;28;20040;-78
2023/11/08 08:58:37;;;;;;;0.00;0.00;;;;;;;10.75;100.00;99032.97;4943041;28;20458;-79
2023/11/08 09:01:06;;;;;;;0.00;0.00;;;;;;;10.84;100.00;99030.34;4965058;28;20118;-78
2023/11/08 09:03:31;;;;;;;0.00;0.00;;;;;;;10.75;100.00;99004.84;4994389;28;20514;-79
2023/11/08 09:05:59;;;;;;;0.00;0.00;;;;;;;10.77;100.00;99002.59;4951191;28;20021;-79
2023/11/08 09:08:30;;;;;;;0.00;0.00;;;;;;;10.94;100.00;99018.41;4976385;28;20380;-78
2023/11/08 09:10:55;;;;;;;0.00;0.00;;;;;;;11.02;100.00;99025.09;4956122;28;20084;-79
2023/11/08 09:13:21;;;;;;;0.00;0.00;;;;;;;10.90;100.00;98990.84;4955063;28;20033;-79
2023/11/08 09:15:46;;;;;;;0.00;0.00;;;;;;;10.97;100.00;98994.00;4967124;28;20378;-77
2023/11/08 09:18:11;;;;;;;0.00;0.00;;;;;;;11.03;100.00;99046.69;4958622;28;20026;-77
2023/11/08 09:20:37;;;;;;;0.00;0.00;;;;;;;11.04;100.00;99001.81;4964863;28;20034;-77
2023/11/08 09:23:03;;;;;;;0.00;0.00;;;;;;;11.16;100.00;98998.56;4953695;28;20030;-77
2023/11/08 09:25:28;;;;;;;0.00;0.00;;;;;;;11.11;100.00;98996.75;4956562;28;20384;-81
2023/11/08 09:27:54;;;;;;;0.00;0.00;;;;;;;11.19;100.00;98987.00;4958829;28;20042;-79
2023/11/08 09:30:19;;;;;;;0.00;0.00;;;;;;;11.09;100.00;98979.00;4968222;28;20030;-79
2023/11/08 09:32:45;;;;;;;0.00;0.00;;;;;;;11.18;100.00;98985.38;4967269;28;20465;-79
2023/11/08 09:35:10;;;;;;;0.00;0.00;;;;;;;11.19;100.00;98981.53;4988719;28;20473;-79
2023/11/08 09:37:36;;;;;;;0.03;0.03;;;;;;;11.15;100.00;98964.09;4950437;28;20026;-80
2023/11/08 09:40:04;;;;;;;0.00;0.00;;;;;;;11.20;100.00;98961.28;4938615;28;20047;-77
2023/11/08 09:42:32;;;;;;;0.00;0.00;;;;;;;11.26;100.00;98979.19;4928137;28;20027;-78
2023/11/08 09:44:58;;;;;;;0.00;0.00;;;;;;;11.43;100.00;98959.38;4946004;28;20034;-78
2023/11/08 09:47:25;;;;;;;0.00;0.00;;;;;;;11.42;100.00;98967.91;4967949;28;20121;-78
2023/11/08 09:49:52;;;;;;;0.00;0.00;;;;;;;11.54;100.00;98981.88;4955696;28;20031;-78
2023/11/08 09:52:18;;;;;;;0.00;0.00;;;;;;;11.70;100.00;98974.94;4992340;28;20388;-77
2023/11/08 09:54:44;;;;;;;0.00;0.00;;;;;;;11.73;100.00;98976.25;4986974;28;20053;-77
2023/11/08 09:57:13;;;;;;;0.00;0.00;;;;;;;11.80;100.00;98989.53;4954169;28;20035;-77
2023/11/08 09:59:40;;;;;;;0.00;0.00;;;;;;;11.82;100.00;98959.91;4971209;28;20026;-77
2023/11/08 10:02:09;;;;;;;0.00;0.00;;;;;;;12.02;100.00;98981.34;4957703;28;20055;-77
2023/11/08 10:04:35;;;;;;;0.00;0.00;;;;;;;11.97;100.00;98956.84;4969855;28;20044;-76
2023/11/08 10:07:00;;;;;;;0.00;0.00;;;;;;;11.98;100.00;98952.97;4950280;28;20023;-77
2023/11/08 10:09:35;;;;;;;0.00;0.00;;;;;;;12.07;100.00;98980.41;4965879;28;20535;-78
2023/11/08 10:12:02;;;;;;;0.00;0.00;;;;;;;12.11;100.00;98983.38;4971674;28;20113;-76
2023/11/08 10:14:34;;;;;;;0.00;0.00;;;;;;;12.04;100.00;98946.22;4971625;28;20030;-76
2023/11/08 10:17:02;;;;;;;0.00;0.00;;;;;;;12.20;100.00;98976.00;4972100;28;20026;-76
2023/11/08 10:19:48;;;;;;;0.00;0.00;;;;;;;12.18;100.00;98959.88;4963541;28;20101;-77
2023/11/08 10:22:21;;;;;;;0.00;0.00;;;;;;;12.15;100.00;98957.75;4959433;28;20428;-80
2023/11/08 10:24:57;;;;;;;0.00;0.00;;;;;;;12.15;100.00;98940.50;4964898;28;20159;-77
2023/11/08 10:27:28;;;;;;;0.00;0.00;;;;;;;12.24;100.00;98957.81;4970359;28;20057;-77
2023/11/08 10:30:12;;;;;;;0.00;0.00;;;;;;;12.22;100.00;98947.16;4949661;28;20126;-77
2023/11/08 10:32:39;;;;;;;0.00;0.00;;;;;;;12.21;100.00;98939.25;4966489;28;20026;-78
2023/11/08 10:35:19;;;;;;;0.00;0.00;;;;;;;12.40;100.00;98944.53;4966778;28;20284;-77
2023/11/08 10:37:46;;;;;;;0.00;0.00;;;;;;;12.23;100.00;98940.53;4983713;28;20049;-77
2023/11/08 10:40:13;;;;;;;0.00;0.00;;;;;;;12.18;100.00;98924.25;4957897;28;20492;-77
2023/11/08 10:42:39;;;;;;;0.00;0.00;;;;;;;12.22;100.00;98924.41;4965373;28;20027;-77
2023/11/08 10:45:11;;;;;;;0.00;0.00;;;;;;;12.34;100.00;98935.63;4970573;28;20022;-78
2023/11/08 10:47:39;;;;;;;0.00;0.00;;;;;;;12.33;100.00;98947.69;4935193;28;20031;-77
2023/11/08 10:50:27;;;;;;;0.00;0.00;;;;;;;12.33;100.00;98934.00;4968368;28;20038;-77
2023/11/08 10:52:57;;;;;;;0.00;0.00;;;;;;;12.28;100.00;98927.84;4983703;28;20447;-78
2023/11/08 10:55:25;;;;;;;0.00;0.00;;;;;;;12.28;100.00;98922.34;4982717;28;20385;-78
2023/11/08 10:57:58;;;;;;;0.00;0.00;;;;;;;12.41;100.00;98926.94;4955586;28;20034;-77
2023/11/08 11:00:25;;;;;;;0.00;0.00;;;;;;;12.41;100.00;98943.38;4967261;28;20029;-78
2023/11/08 11:02:57;;;;;;;0.00;0.00;;;;;;;12.44;100.00;98925.50;4966078;28;20116;-78
2023/11/08 11:05:34;;;;;;;0.05;0.05;;;;;;;12.44;100.00;98928.25;4964409;28;20027;-78
2023/11/08 11:08:02;;;;;;;0.00;0.00;;;;;;;12.57;100.00;98949.28;4965435;28;20022;-78
2023/11/08 11:10:32;;;;;;;0.00;0.00;;;;;;;12.64;100.00;98941.41;4952478;28;20481;-77
2023/11/08 11:13:03;;;;;;;0.00;0.00;;;;;;;12.67;100.00;98946.25;4962381;28;20030;-77
2023/11/08 11:15:49;;;;;;;0.00;0.00;;;;;;;12.72;100.00;98959.03;4983867;28;20385;-77
2023/11/08 11:18:18;;;;;;;0.00;0.00;;;;;;;12.66;100.00;98972.09;4953115;28;20072;-78
2023/11/08 11:20:59;;;;;;;0.00;0.00;;;;;;;12.44;100.00;98969.38;4969191;28;20034;-79
2023/11/08 11:23:39;;;;;;;0.00;0.00;;;;;;;12.02;100.00;98992.31;4985732;28;20026;-77
2023/11/08 11:26:05;;;;;;;0.00;0.00;;;;;;;11.52;100.00;98990.41;4981336;28;20022;-77
2023/11/08 11:28:52;;;;;;;0.00;0.00;;;;;;;11.31;100.00;98995.50;4964336;28;20019;-77
2023/11/08 11:31:42;;;;;;;0.00;0.00;;;;;;;11.27;100.00;98999.16;4956820;28;21276;-78
2023/11/08 11:34:26;;;;;;;0.00;0.00;;;;;;;11.28;100.00;98982.44;4954510;28;20425;-78